sensor_id;sensor_type;location;lat;lon;timestamp;pressure;altitude;pressure_sealevel;temperature;humidity
16194;BME280;8204;53.582;10.080;2023-02-19T00:02:05;100292.72;;;6.99;100.00
16194;BME280;8204;53.582;10.080;2023-02-19T00:04:33;100298.72;;;6.99;100.00
16194;BME280;8204;53.582;10.080;2023-02-19T00:07:02;100291.88;;;6.98;100.00
16194;BME280;8204;53.582;10.080;2023-02-19T00:09:35;100278.94;;;7.06;100.00
16194;BME280;8204;53.582;10.080;2023-02-19T00:12:05;100299.78;;;7.06;100.00
16194;BME280;8204;53.582;10.080;2023-02-19T00:14:34;100289.88;;;7.10;100.00
16194;BME280;8204;53.582;10.080;2023-02-19T00:17:03;100284.66;;;7.10;100.00
16194;BME280;8204;53.582;10.080;2023-02-19T00:19:32;100278.66;;;7.09;100.00
16194;BME280;8204;53.582;10.080;2023-02-19T00:22:00;100263.09;;;7.17;100.00
16194;BME280;8204;53.582;10.080;2023-02-19T00:24:29;100271.88;;;7.16;100.00
16194;BME280;8204;53.582;10.080;2023-02-19T00:27:00;100258.88;;;7.16;100.00
16194;BME280;8204;53.582;10.080;2023-02-19T00:29:29;100268.44;;;7.16;100.00
16194;BME280;8204;53.582;10.080;2023-02-19T00:31:58;100261.31;;;7.18;100.00
16194;BME280;8204;53.582;10.080;2023-02-19T00:34:27;100251.56;;;7.20;100.00
16194;BME280;8204;53.582;10.080;2023-02-19T00:36:56;100249.09;;;7.18;100.00
16194;BME280;8204;53.582;10.080;2023-02-19T00:39:25;100251.69;;;7.18;100.00
16194;BME280;8204;53.582;10.080;2023-02-19T00:41:53;100241.59;;;7.15;100.00
16194;BME280;8204;53.582;10.080;2023-02-19T00:44:25;100232.50;;;7.19;100.00
16194;BME280;8204;53.582;10.080;2023-02-19T00:46:53;100224.84;;;7.18;100.00
16194;BME280;8204;53.582;10.080;2023-02-19T00:49:22;100227.28;;;7.19;100.00
16194;BME280;8204;53.582;10.080;2023-02-19T00:51:54;100242.91;;;7.19;100.00
16194;BME280;8204;53.582;10.080;2023-02-19T00:54:23;100241.00;;;7.21;100.00
16194;BME280;8204;53.582;10.080;2023-02-19T00:56:53;100243.88;;;7.18;100.00
16194;BME280;8204;53.582;10.080;2023-02-19T00:59:21;100234.81;;;7.22;100.00
16194;BME280;8204;53.582;10.080;2023-02-19T01:01:53;100238.22;;;7.22;100.00
16194;BME280;8204;53.582;10.080;2023-02-19T01:04:21;100246.19;;;7.21;100.00
16194;BME280;8204;53.582;10.080;2023-02-19T01:06:50;100237.41;;;7.22;100.00
16194;BME280;8204;53.582;10.080;2023-02-19T01:09:24;100236.47;;;7.23;100.00
16194;BME280;8204;53.582;10.080;2023-02-19T01:11:56;100238.22;;;7.22;100.00
16194;BME280;8204;53.582;10.080;2023-02-19T01:14:25;100237.53;;;7.21;100.00
16194;BME280;8204;53.582;10.080;2023-02-19T01:16:57;100243.22;;;7.16;100.00
16194;BME280;8204;53.582;10.080;2023-02-19T01:19:26;100231.84;;;7.17;100.00
16194;BME280;8204;53.582;10.080;2023-02-19T01:21:55;100226.75;;;7.16;100.00
16194;BME280;8204;53.582;10.080;2023-02-19T01:24:24;100222.69;;;7.13;100.00
16194;BME280;8204;53.582;10.080;2023-02-19T01:26:53;100220.22;;;7.12;100.00
16194;BME280;8204;53.582;10.080;2023-02-19T01:29:22;100218.88;;;7.08;100.00
16194;BME280;8204;53.582;10.080;2023-02-19T01:31:51;100223.13;;;7.09;100.00
16194;BME280;8204;53.582;10.080;2023-02-19T01:34:22;100222.16;;;7.10;100.00
16194;BME280;8204;53.582;10.080;2023-02-19T01:36:51;100205.84;;;7.08;100.00
16194;BME280;8204;53.582;10.080;2023-02-19T01:39:20;100194.97;;;7.12;100.00
16194;BME280;8204;53.582;10.080;2023-02-19T01:41:49;100191.56;;;7.12;100.00
16194;BME280;8204;53.582;10.080;2023-02-19T01:47:17;100190.72;;;7.11;100.00
16194;BME280;8204;53.582;10.080;2023-02-19T01:49:52;100186.38;;;7.12;100.00
16194;BME280;8204;53.582;10.080;2023-02-19T01:52:25;100192.00;;;7.07;100.00
16194;BME280;8204;53.582;10.080;2023-02-19T01:54:56;100192.38;;;7.12;100.00
16194;BME280;8204;53.582;10.080;2023-02-19T01:57:27;100208.44;;;7.08;100.00
16194;BME280;8204;53.582;10.080;2023-02-19T02:00:05;100219.38;;;7.11;100.00
16194;BME280;8204;53.582;10.080;2023-02-19T02:02:36;100227.28;;;7.02;100.00
16194;BME280;8204;53.582;10.080;2023-02-19T02:05:14;100232.38;;;7.03;100.00
16194;BME280;8204;53.582;10.080;2023-02-19T02:07:45;100241.13;;;7.02;100.00
16194;BME280;8204;53.582;10.080;2023-02-19T02:10:33;100246.34;;;7.02;100.00
16194;BME280;8204;53.582;10.080;2023-02-19T02:13:01;100268.59;;;6.97;100.00
16194;BME280;8204;53.582;10.080;2023-02-19T02:15:38;100271.03;;;6.98;100.00
16194;BME280;8204;53.582;10.080;2023-02-19T02:18:19;100264.22;;;6.97;100.00
16194;BME280;8204;53.582;10.080;2023-02-19T02:21:20;100272.84;;;6.98;100.00
16194;BME280;8204;53.582;10.080;2023-02-19T02:24:05;100266.13;;;6.95;100.00
16194;BME280;8204;53.582;10.080;2023-02-19T02:26:57;100275.34;;;6.90;100.00
16194;BME280;8204;53.582;10.080;2023-02-19T02:29:57;100276.81;;;6.92;100.00
16194;BME280;8204;53.582;10.080;2023-02-19T02:32:36;100295.38;;;6.89;100.00
16194;BME280;8204;53.582;10.080;2023-02-19T02:35:09;100309.94;;;6.82;100.00
16194;BME280;8204;53.582;10.080;2023-02-19T02:37:44;100318.19;;;6.78;100.00
16194;BME280;8204;53.582;10.080;2023-02-19T02:40:14;100316.38;;;6.78;100.00
16194;BME280;8204;53.582;10.080;2023-02-19T02:42:44;100308.88;;;6.75;100.00
16194;BME280;8204;53.582;10.080;2023-02-19T02:45:26;100313.41;;;6.73;100.00
16194;BME280;8204;53.582;10.080;2023-02-19T02:48:09;100322.69;;;6.76;100.00
16194;BME280;8204;53.582;10.080;2023-02-19T02:50:43;100329.03;;;6.73;100.00
16194;BME280;8204;53.582;10.080;2023-02-19T02:53:17;100342.91;;;6.64;100.00
16194;BME280;8204;53.582;10.080;2023-02-19T02:56:00;100342.06;;;6.64;100.00
16194;BME280;8204;53.582;10.080;2023-02-19T02:58:30;100317.69;;;6.65;100.00
16194;BME280;8204;53.582;10.080;2023-02-19T03:01:06;100337.84;;;6.63;100.00
16194;BME280;8204;53.582;10.080;2023-02-19T03:03:52;100337.72;;;6.64;100.00
16194;BME280;8204;53.582;10.080;2023-02-19T03:06:23;100338.94;;;6.60;100.00
16194;BME280;8204;53.582;10.080;2023-02-19T03:08:56;100335.38;;;6.61;100.00
16194;BME280;8204;53.582;10.080;2023-02-19T03:11:29;100330.84;;;6.63;100.00
16194;BME280;8204;53.582;10.080;2023-02-19T03:14:15;100342.50;;;6.59;100.00
16194;BME280;8204;53.582;10.080;2023-02-19T03:17:18;100331.81;;;6.62;100.00
16194;BME280;8204;53.582;10.080;2023-02-19T03:20:09;100335.81;;;6.57;100.00
16194;BME280;8204;53.582;10.080;2023-02-19T03:22:41;100337.19;;;6.61;100.00
16194;BME280;8204;53.582;10.080;2023-02-19T03:25:12;100350.59;;;6.56;100.00
16194;BME280;8204;53.582;10.080;2023-02-19T03:27:58;100343.75;;;6.55;100.00
16194;BME280;8204;53.582;10.080;2023-02-19T03:30:30;100344.97;;;6.61;100.00
16194;BME280;8204;53.582;10.080;2023-02-19T03:33:05;100338.94;;;6.60;100.00
16194;BME280;8204;53.582;10.080;2023-02-19T03:35:39;100327.72;;;6.60;100.00
16194;BME280;8204;53.582;10.080;2023-02-19T03:38:11;100334.03;;;6.57;100.00
16194;BME280;8204;53.582;10.080;2023-02-19T03:40:50;100323.31;;;6.60;100.00
16194;BME280;8204;53.582;10.080;2023-02-19T03:43:26;100328.84;;;6.57;100.00
16194;BME280;8204;53.582;10.080;2023-02-19T03:46:06;100326.88;;;6.59;100.00
16194;BME280;8204;53.582;10.080;2023-02-19T03:48:44;100324.28;;;6.59;100.00
16194;BME280;8204;53.582;10.080;2023-02-19T03:51:24;100314.81;;;6.58;100.00
16194;BME280;8204;53.582;10.080;2023-02-19T03:54:01;100328.00;;;6.57;100.00
16194;BME280;8204;53.582;10.080;2023-02-19T03:56:35;100318.69;;;6.54;100.00
16194;BME280;8204;53.582;10.080;2023-02-19T03:59:09;100315.94;;;6.56;100.00
16194;BME280;8204;53.582;10.080;2023-02-19T04:01:41;100317.03;;;6.53;100.00
16194;BME280;8204;53.582;10.080;2023-02-19T04:04:18;100310.72;;;6.56;100.00
16194;BME280;8204;53.582;10.080;2023-02-19T04:06:51;100306.38;;;6.56;100.00
16194;BME280;8204;53.582;10.080;2023-02-19T04:09:23;100309.63;;;6.58;100.00
16194;BME280;8204;53.582;10.080;2023-02-19T04:11:54;100318.41;;;6.57;100.00
16194;BME280;8204;53.582;10.080;2023-02-19T04:14:27;100308.97;;;6.56;100.00
16194;BME280;8204;53.582;10.080;2023-02-19T04:17:00;100310.19;;;6.52;100.00
16194;BME280;8204;53.582;10.080;2023-02-19T04:19:34;100320.59;;;6.52;100.00
16194;BME280;8204;53.582;10.080;2023-02-19T04:22:05;100321.72;;;6.50;100.00
16194;BME280;8204;53.582;10.080;2023-02-19T04:24:38;100313.91;;;6.50;100.00
16194;BME280;8204;53.582;10.080;2023-02-19T04:27:08;100314.75;;;6.51;100.00
16194;BME280;8204;53.582;10.080;2023-02-19T04:29:37;100332.97;;;6.51;100.00
16194;BME280;8204;53.582;10.080;2023-02-19T04:32:08;100336.78;;;6.47;100.00
16194;BME280;8204;53.582;10.080;2023-02-19T04:34:40;100347.22;;;6.47;100.00
16194;BME280;8204;53.582;10.080;2023-02-19T04:37:09;100351.75;;;6.45;100.00
16194;BME280;8204;53.582;10.080;2023-02-19T04:39:37;100358.06;;;6.42;100.00
16194;BME280;8204;53.582;10.080;2023-02-19T04:42:08;100366.69;;;6.43;100.00
16194;BME280;8204;53.582;10.080;2023-02-19T04:44:37;100369.28;;;6.43;100.00
16194;BME280;8204;53.582;10.080;2023-02-19T04:47:06;100371.06;;;6.42;100.00
16194;BME280;8204;53.582;10.080;2023-02-19T04:49:35;100387.09;;;6.38;100.00
16194;BME280;8204;53.582;10.080;2023-02-19T04:52:06;100388.88;;;6.37;100.00
16194;BME280;8204;53.582;10.080;2023-02-19T04:54:35;100398.47;;;6.37;100.00
16194;BME280;8204;53.582;10.080;2023-02-19T04:57:04;100400.38;;;6.35;100.00
16194;BME280;8204;53.582;10.080;2023-02-19T04:59:33;100414.34;;;6.34;100.00
16194;BME280;8204;53.582;10.080;2023-02-19T05:02:02;100417.63;;;6.36;100.00
16194;BME280;8204;53.582;10.080;2023-02-19T05:04:31;100417.91;;;6.33;100.00
16194;BME280;8204;53.582;10.080;2023-02-19T05:07:00;100427.50;;;6.32;100.00
16194;BME280;8204;53.582;10.080;2023-02-19T05:09:31;100430.38;;;6.29;100.00
16194;BME280;8204;53.582;10.080;2023-02-19T05:12:00;100430.50;;;6.28;100.00
16194;BME280;8204;53.582;10.080;2023-02-19T05:14:29;100439.00;;;6.30;100.00
16194;BME280;8204;53.582;10.080;2023-02-19T05:16:57;100439.97;;;6.29;100.00
16194;BME280;8204;53.582;10.080;2023-02-19T05:19:26;100433.25;;;6.26;100.00
16194;BME280;8204;53.582;10.080;2023-02-19T05:21:55;100442.31;;;6.22;100.00
16194;BME280;8204;53.582;10.080;2023-02-19T05:24:24;100444.22;;;6.20;100.00
16194;BME280;8204;53.582;10.080;2023-02-19T05:26:55;100446.28;;;6.17;100.00
16194;BME280;8204;53.582;10.080;2023-02-19T05:29:24;100445.88;;;6.12;100.00
16194;BME280;8204;53.582;10.080;2023-02-19T05:31:53;100448.88;;;6.17;100.00
16194;BME280;8204;53.582;10.080;2023-02-19T05:34:22;100458.88;;;6.12;100.00
16194;BME280;8204;53.582;10.080;2023-02-19T05:36:51;100457.94;;;6.13;100.00
16194;BME280;8204;53.582;10.080;2023-02-19T05:39:19;100471.47;;;6.07;100.00
16194;BME280;8204;53.582;10.080;2023-02-19T05:41:48;100462.69;;;5.98;100.00
16194;BME280;8204;53.582;10.080;2023-02-19T05:44:20;100479.25;;;5.97;100.00
16194;BME280;8204;53.582;10.080;2023-02-19T05:46:49;100475.28;;;5.93;100.00
16194;BME280;8204;53.582;10.080;2023-02-19T05:49:17;100482.28;;;5.93;100.00
16194;BME280;8204;53.582;10.080;2023-02-19T05:51:49;100493.34;;;5.95;100.00
16194;BME280;8204;53.582;10.080;2023-02-19T05:54:18;100503.03;;;5.83;100.00
16194;BME280;8204;53.582;10.080;2023-02-19T05:56:47;100499.50;;;5.84;100.00
16194;BME280;8204;53.582;10.080;2023-02-19T05:59:17;100482.53;;;5.90;100.00
16194;BME280;8204;53.582;10.080;2023-02-19T06:01:50;100495.00;;;5.86;100.00
16194;BME280;8204;53.582;10.080;2023-02-19T06:04:19;100478.84;;;5.83;100.00
16194;BME280;8204;53.582;10.080;2023-02-19T06:06:48;100481.16;;;5.77;100.00
16194;BME280;8204;53.582;10.080;2023-02-19T06:09:17;100501.38;;;5.73;100.00
16194;BME280;8204;53.582;10.080;2023-02-19T06:11:46;100506.56;;;5.73;100.00
16194;BME280;8204;53.582;10.080;2023-02-19T06:14:16;100525.97;;;5.69;100.00
16194;BME280;8204;53.582;10.080;2023-02-19T06:16:44;100528.16;;;5.64;100.00
16194;BME280;8204;53.582;10.080;2023-02-19T06:19:16;100522.00;;;5.65;100.00
16194;BME280;8204;53.582;10.080;2023-02-19T06:21:45;100519.41;;;5.65;100.00
16194;BME280;8204;53.582;10.080;2023-02-19T06:24:14;100538.31;;;5.67;100.00
16194;BME280;8204;53.582;10.080;2023-02-19T06:26:42;100533.78;;;5.69;100.00
16194;BME280;8204;53.582;10.080;2023-02-19T06:29:11;100538.97;;;5.69;100.00
16194;BME280;8204;53.582;10.080;2023-02-19T06:31:40;100553.06;;;5.67;100.00
16194;BME280;8204;53.582;10.080;2023-02-19T06:34:09;100555.94;;;5.64;100.00
16194;BME280;8204;53.582;10.080;2023-02-19T06:36:40;100556.03;;;5.62;100.00
16194;BME280;8204;53.582;10.080;2023-02-19T06:39:09;100564.53;;;5.64;100.00
16194;BME280;8204;53.582;10.080;2023-02-19T06:41:38;100578.47;;;5.63;100.00
16194;BME280;8204;53.582;10.080;2023-02-19T06:44:07;100578.25;;;5.66;100.00
16194;BME280;8204;53.582;10.080;2023-02-19T06:46:36;100577.97;;;5.69;100.00
16194;BME280;8204;53.582;10.080;2023-02-19T06:49:05;100596.28;;;5.68;100.00
16194;BME280;8204;53.582;10.080;2023-02-19T06:51:34;100603.13;;;5.69;100.00
16194;BME280;8204;53.582;10.080;2023-02-19T06:54:05;100584.00;;;5.70;100.00
16194;BME280;8204;53.582;10.080;2023-02-19T06:56:36;100595.19;;;5.70;100.00
16194;BME280;8204;53.582;10.080;2023-02-19T06:59:09;100588.09;;;5.72;100.00
16194;BME280;8204;53.582;10.080;2023-02-19T07:01:39;100599.84;;;5.67;100.00
16194;BME280;8204;53.582;10.080;2023-02-19T07:04:08;100580.94;;;5.65;100.00
16194;BME280;8204;53.582;10.080;2023-02-19T07:06:37;100600.94;;;5.64;100.00
16194;BME280;8204;53.582;10.080;2023-02-19T07:09:09;100610.75;;;5.61;100.00
16194;BME280;8204;53.582;10.080;2023-02-19T07:11:39;100614.88;;;5.63;100.00
16194;BME280;8204;53.582;10.080;2023-02-19T07:14:13;100628.81;;;5.62;100.00
16194;BME280;8204;53.582;10.080;2023-02-19T07:16:42;100615.56;;;5.65;100.00
16194;BME280;8204;53.582;10.080;2023-02-19T07:19:12;100622.41;;;5.66;100.00
16194;BME280;8204;53.582;10.080;2023-02-19T07:21:42;100626.16;;;5.73;100.00
16194;BME280;8204;53.582;10.080;2023-02-19T07:24:13;100635.84;;;5.71;100.00
16194;BME280;8204;53.582;10.080;2023-02-19T07:26:42;100636.78;;;5.70;100.00
16194;BME280;8204;53.582;10.080;2023-02-19T07:29:11;100631.88;;;5.67;100.00
16194;BME280;8204;53.582;10.080;2023-02-19T07:31:39;100625.44;;;5.71;100.00
16194;BME280;8204;53.582;10.080;2023-02-19T07:34:11;100641.44;;;5.67;100.00
16194;BME280;8204;53.582;10.080;2023-02-19T07:36:40;100639.91;;;5.64;100.00
16194;BME280;8204;53.582;10.080;2023-02-19T07:39:13;100636.63;;;5.62;100.00
16194;BME280;8204;53.582;10.080;2023-02-19T07:41:43;100638.97;;;5.65;100.00
16194;BME280;8204;53.582;10.080;2023-02-19T07:44:11;100646.75;;;5.65;100.00
16194;BME280;8204;53.582;10.080;2023-02-19T07:46:44;100654.81;;;5.62;100.00
16194;BME280;8204;53.582;10.080;2023-02-19T07:49:13;100644.72;;;5.69;100.00
16194;BME280;8204;53.582;10.080;2023-02-19T07:51:41;100653.09;;;5.72;100.00
16194;BME280;8204;53.582;10.080;2023-02-19T07:54:10;100641.50;;;5.76;100.00
16194;BME280;8204;53.582;10.080;2023-02-19T07:56:41;100651.66;;;5.79;100.00
16194;BME280;8204;53.582;10.080;2023-02-19T07:59:10;100667.50;;;5.76;100.00
16194;BME280;8204;53.582;10.080;2023-02-19T08:01:40;100698.69;;;5.76;100.00
16194;BME280;8204;53.582;10.080;2023-02-19T08:04:21;100711.78;;;5.75;100.00
16194;BME280;8204;53.582;10.080;2023-02-19T08:06:51;100741.72;;;5.69;100.00
16194;BME280;8204;53.582;10.080;2023-02-19T08:09:20;100740.75;;;5.70;100.00
16194;BME280;8204;53.582;10.080;2023-02-19T08:11:51;100738.88;;;5.72;100.00
16194;BME280;8204;53.582;10.080;2023-02-19T08:14:34;100750.06;;;5.73;100.00
16194;BME280;8204;53.582;10.080;2023-02-19T08:17:03;100751.00;;;5.82;100.00
16194;BME280;8204;53.582;10.080;2023-02-19T08:19:32;100750.34;;;5.90;100.00
16194;BME280;8204;53.582;10.080;2023-02-19T08:22:00;100755.41;;;5.91;100.00
16194;BME280;8204;53.582;10.080;2023-02-19T08:24:29;100765.72;;;5.93;100.00
16194;BME280;8204;53.582;10.080;2023-02-19T08:27:01;100780.47;;;5.92;100.00
16194;BME280;8204;53.582;10.080;2023-02-19T08:29:30;100796.34;;;5.89;100.00
16194;BME280;8204;53.582;10.080;2023-02-19T08:31:59;100795.94;;;5.94;100.00
16194;BME280;8204;53.582;10.080;2023-02-19T08:34:28;100793.09;;;5.97;100.00
16194;BME280;8204;53.582;10.080;2023-02-19T08:36:57;100801.03;;;5.95;100.00
16194;BME280;8204;53.582;10.080;2023-02-19T08:39:26;100808.44;;;6.00;100.00
16194;BME280;8204;53.582;10.080;2023-02-19T08:41:56;100811.81;;;5.91;100.00
16194;BME280;8204;53.582;10.080;2023-02-19T08:44:27;100805.59;;;6.03;100.00
16194;BME280;8204;53.582;10.080;2023-02-19T08:46:56;100804.53;;;6.15;100.00
16194;BME280;8204;53.582;10.080;2023-02-19T08:49:25;100832.22;;;6.16;100.00
16194;BME280;8204;53.582;10.080;2023-02-19T08:51:53;100840.72;;;6.18;100.00
16194;BME280;8204;53.582;10.080;2023-02-19T08:54:22;100853.78;;;6.27;100.00
16194;BME280;8204;53.582;10.080;2023-02-19T08:56:51;100869.97;;;6.31;100.00
16194;BME280;8204;53.582;10.080;2023-02-19T08:59:20;100884.50;;;6.33;100.00
16194;BME280;8204;53.582;10.080;2023-02-19T09:01:51;100885.50;;;6.42;100.00
16194;BME280;8204;53.582;10.080;2023-02-19T09:04:20;100919.59;;;6.39;100.00
16194;BME280;8204;53.582;10.080;2023-02-19T09:06:52;100933.56;;;6.38;100.00
16194;BME280;8204;53.582;10.080;2023-02-19T09:09:20;100933.84;;;6.44;100.00
16194;BME280;8204;53.582;10.080;2023-02-19T09:11:49;100954.06;;;6.52;100.00
16194;BME280;8204;53.582;10.080;2023-02-19T09:14:18;100976.25;;;6.55;100.00
16194;BME280;8204;53.582;10.080;2023-02-19T09:16:47;100982.28;;;6.56;100.00
16194;BME280;8204;53.582;10.080;2023-02-19T09:19:18;100985.34;;;6.61;100.00
16194;BME280;8204;53.582;10.080;2023-02-19T09:21:47;100992.19;;;6.62;100.00
16194;BME280;8204;53.582;10.080;2023-02-19T09:24:16;101006.03;;;6.62;100.00
16194;BME280;8204;53.582;10.080;2023-02-19T09:26:47;101008.84;;;6.70;100.00
16194;BME280;8204;53.582;10.080;2023-02-19T09:29:18;101004.31;;;6.72;100.00
16194;BME280;8204;53.582;10.080;2023-02-19T09:31:47;101028.59;;;6.73;100.00
16194;BME280;8204;53.582;10.080;2023-02-19T09:34:18;101032.06;;;6.83;100.00
16194;BME280;8204;53.582;10.080;2023-02-19T09:36:48;101053.84;;;6.82;100.00
16194;BME280;8204;53.582;10.080;2023-02-19T09:39:17;101041.66;;;6.82;100.00
16194;BME280;8204;53.582;10.080;2023-02-19T09:41:48;101034.72;;;6.92;100.00
16194;BME280;8204;53.582;10.080;2023-02-19T09:44:22;101071.91;;;6.94;100.00
16194;BME280;8204;53.582;10.080;2023-02-19T09:46:52;101079.06;;;7.02;100.00
16194;BME280;8204;53.582;10.080;2023-02-19T09:49:27;101066.09;;;7.11;100.00
16194;BME280;8204;53.582;10.080;2023-02-19T09:52:03;101099.72;;;7.14;100.00
16194;BME280;8204;53.582;10.080;2023-02-19T09:54:36;101120.56;;;7.14;100.00
16194;BME280;8204;53.582;10.080;2023-02-19T09:57:11;101129.78;;;7.18;100.00
16194;BME280;8204;53.582;10.080;2023-02-19T09:59:45;101144.91;;;7.24;100.00
16194;BME280;8204;53.582;10.080;2023-02-19T10:02:16;101207.72;;;7.21;100.00
16194;BME280;8204;53.582;10.080;2023-02-19T10:04:49;101244.91;;;7.23;100.00
16194;BME280;8204;53.582;10.080;2023-02-19T10:07:21;101252.91;;;7.31;100.00
16194;BME280;8204;53.582;10.080;2023-02-19T10:09:52;101262.81;;;7.37;100.00
16194;BME280;8204;53.582;10.080;2023-02-19T10:12:26;101265.06;;;7.41;100.00
16194;BME280;8204;53.582;10.080;2023-02-19T10:14:59;101272.94;;;7.51;100.00
16194;BME280;8204;53.582;10.080;2023-02-19T10:17:30;101287.03;;;7.59;100.00
16194;BME280;8204;53.582;10.080;2023-02-19T10:20:03;101313.78;;;7.61;100.00
16194;BME280;8204;53.582;10.080;2023-02-19T10:22:34;101349.94;;;7.66;100.00
16194;BME280;8204;53.582;10.080;2023-02-19T10:25:05;101381.00;;;7.69;100.00
16194;BME280;8204;53.582;10.080;2023-02-19T10:27:34;101456.63;;;7.69;100.00
16194;BME280;8204;53.582;10.080;2023-02-19T10:30:04;101508.09;;;7.67;100.00
16194;BME280;8204;53.582;10.080;2023-02-19T10:32:34;101544.94;;;7.62;100.00
16194;BME280;8204;53.582;10.080;2023-02-19T10:35:12;101544.38;;;7.59;100.00
16194;BME280;8204;53.582;10.080;2023-02-19T10:37:42;101566.16;;;7.58;100.00
16194;BME280;8204;53.582;10.080;2023-02-19T10:40:14;101565.22;;;7.59;100.00
16194;BME280;8204;53.582;10.080;2023-02-19T10:42:45;101589.28;;;7.62;100.00
16194;BME280;8204;53.582;10.080;2023-02-19T10:45:20;101601.03;;;7.68;100.00
16194;BME280;8204;53.582;10.080;2023-02-19T10:47:51;101613.13;;;7.69;100.00
16194;BME280;8204;53.582;10.080;2023-02-19T10:50:26;101638.50;;;7.67;100.00
16194;BME280;8204;53.582;10.080;2023-02-19T10:52:57;101628.03;;;7.78;100.00
16194;BME280;8204;53.582;10.080;2023-02-19T10:55:30;101659.94;;;7.81;100.00
16194;BME280;8204;53.582;10.080;2023-02-19T10:58:21;101703.22;;;7.84;100.00
16194;BME280;8204;53.582;10.080;2023-02-19T11:01:10;101722.94;;;7.88;100.00
16194;BME280;8204;53.582;10.080;2023-02-19T11:03:40;101743.34;;;7.94;100.00
16194;BME280;8204;53.582;10.080;2023-02-19T11:06:13;101752.09;;;8.03;100.00
16194;BME280;8204;53.582;10.080;2023-02-19T11:08:54;101744.81;;;8.19;100.00
16194;BME280;8204;53.582;10.080;2023-02-19T11:11:27;101734.13;;;8.33;100.00
16194;BME280;8204;53.582;10.080;2023-02-19T11:13:57;101751.91;;;8.39;100.00
16194;BME280;8204;53.582;10.080;2023-02-19T11:16:40;101781.22;;;8.43;100.00
16194;BME280;8204;53.582;10.080;2023-02-19T11:19:23;101813.75;;;8.39;100.00
16194;BME280;8204;53.582;10.080;2023-02-19T11:21:56;101823.84;;;8.32;100.00
16194;BME280;8204;53.582;10.080;2023-02-19T11:24:30;101827.88;;;8.36;100.00
16194;BME280;8204;53.582;10.080;2023-02-19T11:27:04;101831.19;;;8.49;100.00
16194;BME280;8204;53.582;10.080;2023-02-19T11:29:33;101800.06;;;8.68;100.00
16194;BME280;8204;53.582;10.080;2023-02-19T11:32:26;101803.38;;;8.92;100.00
16194;BME280;8204;53.582;10.080;2023-02-19T11:35:15;101813.66;;;9.04;100.00
16194;BME280;8204;53.582;10.080;2023-02-19T11:38:00;101813.00;;;9.23;100.00
16194;BME280;8204;53.582;10.080;2023-02-19T11:40:36;101824.28;;;9.34;100.00
16194;BME280;8204;53.582;10.080;2023-02-19T11:43:33;101837.66;;;9.41;100.00
16194;BME280;8204;53.582;10.080;2023-02-19T11:46:08;101844.06;;;9.47;100.00
16194;BME280;8204;53.582;10.080;2023-02-19T11:48:51;101835.50;;;9.45;100.00
16194;BME280;8204;53.582;10.080;2023-02-19T11:51:36;101835.41;;;9.67;100.00
16194;BME280;8204;53.582;10.080;2023-02-19T11:54:19;101832.81;;;9.88;100.00
16194;BME280;8204;53.582;10.080;2023-02-19T11:57:00;101847.56;;;10.00;100.00
16194;BME280;8204;53.582;10.080;2023-02-19T11:59:39;101853.81;;;9.77;100.00
16194;BME280;8204;53.582;10.080;2023-02-19T12:02:26;101872.72;;;9.80;100.00
16194;BME280;8204;53.582;10.080;2023-02-19T12:05:18;101861.13;;;9.94;100.00
16194;BME280;8204;53.582;10.080;2023-02-19T12:08:27;101877.88;;;10.02;100.00
16194;BME280;8204;53.582;10.080;2023-02-19T12:11:10;101877.03;;;10.02;100.00
16194;BME280;8204;53.582;10.080;2023-02-19T12:14:00;101900.31;;;9.84;100.00
16194;BME280;8204;53.582;10.080;2023-02-19T12:16:37;101901.94;;;9.85;100.00
16194;BME280;8204;53.582;10.080;2023-02-19T12:19:26;101905.28;;;9.87;100.00
16194;BME280;8204;53.582;10.080;2023-02-19T12:22:19;101897.19;;;9.90;100.00
16194;BME280;8204;53.582;10.080;2023-02-19T12:25:09;101900.50;;;10.03;100.00
16194;BME280;8204;53.582;10.080;2023-02-19T12:27:58;101906.09;;;10.19;100.00
16194;BME280;8204;53.582;10.080;2023-02-19T12:30:47;101907.31;;;10.35;100.00
16194;BME280;8204;53.582;10.080;2023-02-19T12:33:52;101906.78;;;10.41;100.00
16194;BME280;8204;53.582;10.080;2023-02-19T12:36:33;101920.75;;;10.42;100.00
16194;BME280;8204;53.582;10.080;2023-02-19T12:39:13;101918.31;;;10.29;100.00
16194;BME280;8204;53.582;10.080;2023-02-19T12:41:48;101899.59;;;10.34;100.00
16194;BME280;8204;53.582;10.080;2023-02-19T12:44:26;101905.78;;;10.33;100.00
16194;BME280;8204;53.582;10.080;2023-02-19T12:47:01;101908.91;;;10.27;100.00
16194;BME280;8204;53.582;10.080;2023-02-19T12:49:34;101921.06;;;10.28;100.00
16194;BME280;8204;53.582;10.080;2023-02-19T12:52:07;101925.50;;;10.37;100.00
16194;BME280;8204;53.582;10.080;2023-02-19T12:54:40;101908.88;;;10.47;100.00
16194;BME280;8204;53.582;10.080;2023-02-19T12:57:11;101892.16;;;10.59;100.00
16194;BME280;8204;53.582;10.080;2023-02-19T12:59:47;101917.38;;;10.60;100.00
16194;BME280;8204;53.582;10.080;2023-02-19T13:02:22;101907.47;;;10.64;100.00
16194;BME280;8204;53.582;10.080;2023-02-19T13:04:57;101894.28;;;10.75;100.00
16194;BME280;8204;53.582;10.080;2023-02-19T13:07:34;101903.34;;;10.71;100.00
16194;BME280;8204;53.582;10.080;2023-02-19T13:10:15;101901.31;;;10.74;100.00
16194;BME280;8204;53.582;10.080;2023-02-19T13:12:46;101892.88;;;10.71;100.00
16194;BME280;8204;53.582;10.080;2023-02-19T13:15:24;101881.28;;;10.73;100.00
16194;BME280;8204;53.582;10.080;2023-02-19T13:17:56;101878.38;;;10.67;100.00
16194;BME280;8204;53.582;10.080;2023-02-19T13:20:29;101891.41;;;10.48;100.00
16194;BME280;8204;53.582;10.080;2023-02-19T13:23:02;101895.50;;;10.41;100.00
16194;BME280;8204;53.582;10.080;2023-02-19T13:26:00;101890.50;;;10.38;100.00